Clemency, Luxembourg
Current Conditions -  °F | °C
As of 11:20 PM on Wednesday 22 Oct 2014 (Local Time) from ELLX Reporting Station
Broken Clouds Broken Clouds  
Wind Chill: 40°   Ceiling: 5000
Heat Index: 45°   Visibility: 6mi
Dew Point: 41°   Wind: 8mph
Humidity: 87%   Direction: 270°W
Pressure: 30.21"   Gusts: NA
Location:  49.6°N, 5.88°E
Report Text: ELLX 222120Z 27007KT 250V310 9999 FEW025 BKN050 07/05 Q1023 NOSIG
Loading
Personal Weather Stations






























Interactive Weather Map
Tropical Storm Tracking
New forecast layout! Learn more

10-Day Weather Forecast

Advertisements
Track Severe Weather on mobile